Time;durP1;ratioP1;P1;durP2;ratioP2;P2;SDS_P1;SDS_P2;PMS_P1;PMS_P2;Temp;Humidity;BMP_temperature;BMP_pressure;BME280_temperature;BME280_humidity;BME280_pressure;Samples;Min_cycle;Max_cycle;Signal;HPM_P1;HPM_P2
2021/01/17 00:01:05;;;;;;;2.58;2.38;;;;;;;;;;5078627;28;20194;-53
2021/01/17 00:03:31;;;;;;;3.05;2.35;;;;;;;;;;5093323;28;20217;-53
2021/01/17 00:05:57;;;;;;;3.22;2.03;;;;;;;;;;5096480;28;20205;-53
2021/01/17 00:08:23;;;;;;;2.45;2.25;;;;;;;;;;5094476;28;20213;-53
2021/01/17 00:10:49;;;;;;;2.17;1.98;;;;;;;;;;5080319;28;20214;-53
2021/01/17 00:13:16;;;;;;;2.40;2.20;;;;;;;;;;5082898;28;20178;-53
2021/01/17 00:15:42;;;;;;;2.50;2.17;;;;;;;;;;5080928;28;20189;-53
2021/01/17 00:18:08;;;;;;;2.33;2.13;;;;;;;;;;5084550;28;20553;-53
2021/01/17 00:20:34;;;;;;;2.22;2.00;;;;;;;;;;5083947;28;20553;-53
2021/01/17 00:23:05;;;;;;;2.35;2.10;;;;;;;;;;5086028;28;20228;-53
2021/01/17 00:25:31;;;;;;;2.85;2.17;;;;;;;;;;5092306;28;20257;-53
2021/01/17 00:27:59;;;;;;;2.38;2.15;;;;;;;;;;5078601;28;20668;-53
2021/01/17 00:30:26;;;;;;;2.50;2.10;;;;;;;;;;5080494;28;20182;-53
2021/01/17 00:32:53;;;;;;;2.42;2.00;;;;;;;;;;5089087;28;20622;-53
2021/01/17 00:35:19;;;;;;;1.92;1.80;;;;;;;;;;5092483;28;20182;-53
2021/01/17 00:37:45;;;;;;;1.90;1.80;;;;;;;;;;5094931;28;20189;-53
2021/01/17 00:40:12;;;;;;;2.08;1.90;;;;;;;;;;5081615;28;20225;-53
2021/01/17 00:42:44;;;;;;;1.88;1.75;;;;;;;;;;5078193;28;20789;-53
2021/01/17 00:45:10;;;;;;;2.33;2.13;;;;;;;;;;5088152;28;20170;-53
2021/01/17 00:47:36;;;;;;;1.83;1.73;;;;;;;;;;5093197;28;20182;-53
2021/01/17 00:50:02;;;;;;;2.22;1.77;;;;;;;;;;5109228;28;20185;-53
2021/01/17 00:52:28;;;;;;;3.05;1.77;;;;;;;;;;5102195;28;20209;-53
2021/01/17 00:54:54;;;;;;;2.08;1.98;;;;;;;;;;5091592;28;20238;-53
2021/01/17 00:57:20;;;;;;;1.92;1.80;;;;;;;;;;5090265;28;20542;-53
2021/01/17 00:59:46;;;;;;;2.03;1.90;;;;;;;;;;5075804;28;20190;-53
2021/01/17 01:02:12;;;;;;;2.03;1.83;;;;;;;;;;5084336;28;20202;-53
2021/01/17 01:04:38;;;;;;;2.30;2.00;;;;;;;;;;5087723;28;20186;-53
2021/01/17 01:07:04;;;;;;;2.13;1.95;;;;;;;;;;5080702;28;20174;-53
2021/01/17 01:09:30;;;;;;;1.90;1.80;;;;;;;;;;5088548;28;20805;-53
2021/01/17 01:11:56;;;;;;;1.73;1.63;;;;;;;;;;5093449;28;20216;-53
2021/01/17 01:14:22;;;;;;;1.88;1.77;;;;;;;;;;5095385;28;20166;-53
2021/01/17 01:16:49;;;;;;;2.00;1.90;;;;;;;;;;5098302;28;20171;-53
2021/01/17 01:19:15;;;;;;;1.70;1.60;;;;;;;;;;5094865;28;20212;-53
2021/01/17 01:21:41;;;;;;;2.22;2.03;;;;;;;;;;5091454;28;20189;-53
2021/01/17 01:24:07;;;;;;;2.05;1.85;;;;;;;;;;5084134;28;20569;-53
2021/01/17 01:26:37;;;;;;;1.83;1.73;;;;;;;;;;5094983;28;20256;-53
2021/01/17 01:29:04;;;;;;;1.80;1.70;;;;;;;;;;5075359;28;20445;-53
2021/01/17 01:31:30;;;;;;;1.92;1.75;;;;;;;;;;5075462;28;20212;-53
2021/01/17 01:33:56;;;;;;;1.90;1.80;;;;;;;;;;5090511;28;20190;-53
2021/01/17 01:36:24;;;;;;;2.72;1.80;;;;;;;;;;5093726;28;20265;-53
2021/01/17 01:38:51;;;;;;;1.98;1.80;;;;;;;;;;5092536;28;20173;-53
2021/01/17 01:41:17;;;;;;;1.70;1.60;;;;;;;;;;5085983;28;20197;-53
2021/01/17 01:43:44;;;;;;;2.10;1.88;;;;;;;;;;5094652;28;20184;-53
2021/01/17 01:46:18;;;;;;;1.98;1.88;;;;;;;;;;5094294;28;20205;-53
2021/01/17 01:48:45;;;;;;;2.00;1.90;;;;;;;;;;5095327;28;20180;-53
2021/01/17 01:51:18;;;;;;;1.83;1.73;;;;;;;;;;5094945;28;20197;-53
2021/01/17 01:53:45;;;;;;;1.67;1.58;;;;;;;;;;5093013;28;20201;-53
2021/01/17 01:56:13;;;;;;;1.73;1.63;;;;;;;;;;5092992;28;20199;-53
2021/01/17 01:58:39;;;;;;;3.10;1.67;;;;;;;;;;5079168;28;20609;-53
2021/01/17 02:01:06;;;;;;;1.70;1.60;;;;;;;;;;5095059;28;20484;-53
2021/01/17 02:03:32;;;;;;;1.60;1.50;;;;;;;;;;5094788;28;20166;-53
2021/01/17 02:05:58;;;;;;;1.80;1.70;;;;;;;;;;5090460;28;20190;-53
2021/01/17 02:08:33;;;;;;;1.90;1.80;;;;;;;;;;5084880;28;20196;-53
2021/01/17 02:11:05;;;;;;;1.70;1.60;;;;;;;;;;5092869;28;20213;-53
2021/01/17 02:13:36;;;;;;;1.77;1.67;;;;;;;;;;5084545;28;20253;-53
2021/01/17 02:16:04;;;;;;;1.65;1.55;;;;;;;;;;5099371;28;20184;-53
2021/01/17 02:18:30;;;;;;;1.65;1.55;;;;;;;;;;5081451;28;20178;-53
2021/01/17 02:20:56;;;;;;;2.45;1.80;;;;;;;;;;5090722;28;20182;-53
2021/01/17 02:23:25;;;;;;;1.48;1.38;;;;;;;;;;5074530;28;20574;-53
2021/01/17 02:25:51;;;;;;;1.70;1.60;;;;;;;;;;5073893;28;20170;-53
2021/01/17 02:28:18;;;;;;;2.13;2.00;;;;;;;;;;5075502;28;20178;-53
2021/01/17 02:30:55;;;;;;;1.70;1.60;;;;;;;;;;5092301;28;20185;-53
2021/01/17 02:33:21;;;;;;;1.88;1.77;;;;;;;;;;5084915;28;20177;-53
2021/01/17 02:35:47;;;;;;;1.90;1.80;;;;;;;;;;5078055;28;20177;-53
2021/01/17 02:38:32;;;;;;;1.83;1.73;;;;;;;;;;5074285;28;20178;-53
2021/01/17 02:41:07;;;;;;;1.90;1.80;;;;;;;;;;5087352;28;20552;-53
2021/01/17 02:43:34;;;;;;;2.05;1.95;;;;;;;;;;5093036;28;20181;-53
2021/01/17 02:46:00;;;;;;;1.90;1.80;;;;;;;;;;5089197;28;20174;-53
2021/01/17 02:48:25;;;;;;;1.70;1.60;;;;;;;;;;5075592;28;20208;-53
2021/01/17 02:50:52;;;;;;;1.60;1.50;;;;;;;;;;5100476;28;20328;-53
2021/01/17 02:53:29;;;;;;;2.00;1.60;;;;;;;;;;5091019;28;20193;-53
2021/01/17 02:55:59;;;;;;;1.85;1.67;;;;;;;;;;5085077;28;20261;-53
2021/01/17 02:58:26;;;;;;;1.42;1.33;;;;;;;;;;5089949;28;20230;-53
2021/01/17 03:00:55;;;;;;;1.73;1.63;;;;;;;;;;5080899;28;20181;-53
2021/01/17 03:03:22;;;;;;;1.80;1.70;;;;;;;;;;5094321;28;20200;-53
2021/01/17 03:05:48;;;;;;;1.83;1.50;;;;;;;;;;5082841;28;20186;-53
2021/01/17 03:08:16;;;;;;;1.70;1.60;;;;;;;;;;5087501;28;20182;-53
2021/01/17 03:10:42;;;;;;;2.00;1.80;;;;;;;;;;5094095;28;20273;-54
2021/01/17 03:13:09;;;;;;;1.67;1.58;;;;;;;;;;5091806;28;20267;-53
2021/01/17 03:15:35;;;;;;;1.80;1.70;;;;;;;;;;5083159;28;20197;-53
2021/01/17 03:18:01;;;;;;;1.77;1.67;;;;;;;;;;5082797;28;20178;-53
2021/01/17 03:20:27;;;;;;;1.55;1.45;;;;;;;;;;5099399;28;20171;-53
2021/01/17 03:22:53;;;;;;;1.52;1.42;;;;;;;;;;5088973;28;20565;-53
2021/01/17 03:25:19;;;;;;;1.70;1.60;;;;;;;;;;5096507;28;20254;-53
2021/01/17 03:27:45;;;;;;;1.70;1.60;;;;;;;;;;5092828;28;20178;-53
2021/01/17 03:30:12;;;;;;;1.80;1.70;;;;;;;;;;5078407;28;20593;-53
2021/01/17 03:32:38;;;;;;;2.67;1.60;;;;;;;;;;5077158;28;20202;-53
2021/01/17 03:35:04;;;;;;;1.90;1.70;;;;;;;;;;5081432;28;20262;-53
2021/01/17 03:37:30;;;;;;;1.60;1.50;;;;;;;;;;5077291;28;20281;-53
2021/01/17 03:39:56;;;;;;;1.75;1.65;;;;;;;;;;5077469;28;20261;-53
2021/01/17 03:42:22;;;;;;;1.88;1.77;;;;;;;;;;5085465;28;20193;-53
2021/01/17 03:44:48;;;;;;;1.50;1.40;;;;;;;;;;5094083;28;20257;-53
2021/01/17 03:47:14;;;;;;;1.80;1.70;;;;;;;;;;5093141;28;20433;-53
2021/01/17 03:49:40;;;;;;;1.50;1.40;;;;;;;;;;5090173;28;20182;-53
2021/01/17 03:52:06;;;;;;;1.50;1.40;;;;;;;;;;5092198;28;20212;-53
2021/01/17 03:54:32;;;;;;;1.63;1.52;;;;;;;;;;5096667;28;20165;-53
2021/01/17 03:56:58;;;;;;;1.45;1.35;;;;;;;;;;5079955;28;20266;-53
2021/01/17 03:59:24;;;;;;;1.52;1.42;;;;;;;;;;5096636;28;20181;-53
2021/01/17 04:01:51;;;;;;;1.50;1.40;;;;;;;;;;5095496;28;20553;-53
2021/01/17 04:04:17;;;;;;;1.70;1.60;;;;;;;;;;5094536;28;20188;-53
2021/01/17 04:06:43;;;;;;;1.40;1.30;;;;;;;;;;5095578;28;20181;-53
2021/01/17 04:09:09;;;;;;;1.60;1.50;;;;;;;;;;5081293;28;20297;-53
2021/01/17 04:11:35;;;;;;;1.65;1.55;;;;;;;;;;5077162;28;20260;-53
2021/01/17 04:14:01;;;;;;;1.70;1.60;;;;;;;;;;5077377;28;20189;-53
2021/01/17 04:16:27;;;;;;;1.77;1.67;;;;;;;;;;5086796;28;20194;-53
2021/01/17 04:18:53;;;;;;;1.75;1.65;;;;;;;;;;5090467;28;20827;-53
2021/01/17 04:21:19;;;;;;;2.35;1.70;;;;;;;;;;5100269;28;20189;-53
2021/01/17 04:23:45;;;;;;;1.80;1.70;;;;;;;;;;5083974;28;20182;-53
2021/01/17 04:26:11;;;;;;;1.63;1.52;;;;;;;;;;5086848;28;20192;-53
2021/01/17 04:28:37;;;;;;;1.55;1.45;;;;;;;;;;5091193;28;20186;-53
2021/01/17 04:31:03;;;;;;;1.60;1.50;;;;;;;;;;5092571;28;20209;-53
2021/01/17 04:33:29;;;;;;;1.58;1.48;;;;;;;;;;5088537;28;20660;-53
2021/01/17 04:35:55;;;;;;;1.55;1.45;;;;;;;;;;5092113;28;20182;-53
2021/01/17 04:38:21;;;;;;;1.50;1.40;;;;;;;;;;5092394;28;20261;-53
2021/01/17 04:40:47;;;;;;;1.50;1.40;;;;;;;;;;5078639;28;20178;-53
2021/01/17 04:43:19;;;;;;;1.80;1.70;;;;;;;;;;5078121;28;20216;-53
2021/01/17 04:45:47;;;;;;;1.60;1.50;;;;;;;;;;5080486;28;20599;-53
2021/01/17 04:48:14;;;;;;;1.63;1.52;;;;;;;;;;5089002;28;20609;-53
2021/01/17 04:50:42;;;;;;;1.48;1.38;;;;;;;;;;5095080;28;20656;-53
2021/01/17 04:53:10;;;;;;;1.73;1.63;;;;;;;;;;5083111;28;20174;-53
2021/01/17 04:55:36;;;;;;;1.60;1.50;;;;;;;;;;5079701;28;20339;-53
2021/01/17 04:58:19;;;;;;;1.65;1.55;;;;;;;;;;5079937;28;20224;-53
2021/01/17 05:00:55;;;;;;;1.40;1.30;;;;;;;;;;5085788;28;20260;-53
2021/01/17 05:03:37;;;;;;;1.60;1.50;;;;;;;;;;5094401;28;20178;-53
2021/01/17 05:06:23;;;;;;;1.75;1.65;;;;;;;;;;5091922;28;20256;-53
2021/01/17 05:08:57;;;;;;;1.60;1.42;;;;;;;;;;5083050;28;20186;-53
2021/01/17 05:11:39;;;;;;;1.80;1.70;;;;;;;;;;5081875;28;20671;-54
2021/01/17 05:14:11;;;;;;;1.45;1.35;;;;;;;;;;5087554;28;20192;-54
2021/01/17 05:16:44;;;;;;;1.60;1.50;;;;;;;;;;5075495;28;20197;-53
2021/01/17 05:19:14;;;;;;;1.73;1.55;;;;;;;;;;5087809;28;20492;-53
2021/01/17 05:21:40;;;;;;;1.50;1.40;;;;;;;;;;5085355;28;20178;-53
2021/01/17 05:24:11;;;;;;;1.60;1.50;;;;;;;;;;5077547;28;20226;-53
2021/01/17 05:26:39;;;;;;;1.88;1.70;;;;;;;;;;5077622;28;20551;-53
2021/01/17 05:29:05;;;;;;;1.50;1.40;;;;;;;;;;5075291;28;20254;-53
2021/01/17 05:31:31;;;;;;;3.05;1.80;;;;;;;;;;5087938;28;20551;-53
2021/01/17 05:33:58;;;;;;;1.95;1.73;;;;;;;;;;5080151;28;20187;-53
2021/01/17 05:36:24;;;;;;;1.80;1.70;;;;;;;;;;5078531;28;20187;-53
2021/01/17 05:39:04;;;;;;;1.38;1.27;;;;;;;;;;5083629;28;20457;-53
2021/01/17 05:41:30;;;;;;;2.22;1.70;;;;;;;;;;5091725;28;20208;-54
2021/01/17 05:43:56;;;;;;;1.50;1.40;;;;;;;;;;5091319;28;20209;-54
2021/01/17 05:46:22;;;;;;;1.80;1.70;;;;;;;;;;5090688;28;20189;-54
2021/01/17 05:48:47;;;;;;;1.65;1.55;;;;;;;;;;5093460;28;20181;-53
2021/01/17 05:51:26;;;;;;;1.98;1.80;;;;;;;;;;5092282;28;20557;-53
2021/01/17 05:53:52;;;;;;;1.75;1.65;;;;;;;;;;5083992;28;20184;-53
2021/01/17 05:56:19;;;;;;;1.80;1.70;;;;;;;;;;5080276;28;20496;-53
2021/01/17 05:58:45;;;;;;;1.52;1.42;;;;;;;;;;5089964;28;20614;-53
2021/01/17 06:01:17;;;;;;;1.65;1.55;;;;;;;;;;5094957;28;20182;-53
2021/01/17 06:03:50;;;;;;;1.70;1.60;;;;;;;;;;5086807;28;20181;-53
2021/01/17 06:06:25;;;;;;;1.83;1.73;;;;;;;;;;5090914;28;20264;-53
2021/01/17 06:08:52;;;;;;;2.65;1.58;;;;;;;;;;5094832;28;20556;-53
2021/01/17 06:11:20;;;;;;;1.77;1.63;;;;;;;;;;5088465;28;20213;-53
2021/01/17 06:13:52;;;;;;;1.55;1.45;;;;;;;;;;5079868;28;20202;-54
2021/01/17 06:16:37;;;;;;;1.80;1.70;;;;;;;;;;5078904;28;20205;-53
2021/01/17 06:19:07;;;;;;;1.95;1.85;;;;;;;;;;5091593;28;20526;-53
2021/01/17 06:21:34;;;;;;;1.90;1.77;;;;;;;;;;5088334;28;20185;-53
2021/01/17 06:24:04;;;;;;;1.98;1.88;;;;;;;;;;5089405;28;20182;-53
2021/01/17 06:26:34;;;;;;;2.08;1.90;;;;;;;;;;5094571;28;20162;-53
2021/01/17 06:29:00;;;;;;;1.77;1.67;;;;;;;;;;5084694;28;20192;-53
2021/01/17 06:31:28;;;;;;;1.63;1.52;;;;;;;;;;5086462;28;20218;-53
2021/01/17 06:34:10;;;;;;;2.03;1.92;;;;;;;;;;5076666;28;20170;-53
2021/01/17 06:36:36;;;;;;;1.95;1.73;;;;;;;;;;5091639;28;20556;-53
2021/01/17 06:39:03;;;;;;;1.85;1.65;;;;;;;;;;5074568;28;20182;-53
2021/01/17 06:41:36;;;;;;;2.03;1.92;;;;;;;;;;5085797;28;20201;-53
2021/01/17 06:44:09;;;;;;;1.60;1.50;;;;;;;;;;5085770;28;20175;-53
2021/01/17 06:46:39;;;;;;;1.95;1.85;;;;;;;;;;5080540;28;20477;-54
2021/01/17 06:49:21;;;;;;;2.20;2.00;;;;;;;;;;5084959;28;20174;-53
2021/01/17 06:51:47;;;;;;;1.85;1.75;;;;;;;;;;5077749;28;20213;-53
2021/01/17 06:54:16;;;;;;;1.90;1.80;;;;;;;;;;5084132;28;20779;-53
2021/01/17 06:56:43;;;;;;;1.95;1.85;;;;;;;;;;5079542;28;20175;-53
2021/01/17 06:59:09;;;;;;;2.42;2.20;;;;;;;;;;5079003;28;20185;-53
2021/01/17 07:01:41;;;;;;;2.30;2.10;;;;;;;;;;5082354;28;20187;-53
2021/01/17 07:04:17;;;;;;;2.00;1.90;;;;;;;;;;5079307;28;20179;-53
2021/01/17 07:06:43;;;;;;;2.00;1.80;;;;;;;;;;5090832;28;20177;-53
2021/01/17 07:09:09;;;;;;;2.05;1.80;;;;;;;;;;5085301;28;20204;-53
2021/01/17 07:11:35;;;;;;;1.85;1.75;;;;;;;;;;5094846;28;20546;-53
2021/01/17 07:14:06;;;;;;;2.03;1.83;;;;;;;;;;5085855;28;20261;-53
2021/01/17 07:16:33;;;;;;;2.40;2.00;;;;;;;;;;5078179;28;20254;-53
2021/01/17 07:19:03;;;;;;;2.50;2.30;;;;;;;;;;5085052;28;20305;-53
2021/01/17 07:21:38;;;;;;;3.88;2.35;;;;;;;;;;5094070;28;20232;-53
2021/01/17 07:24:05;;;;;;;3.72;2.35;;;;;;;;;;5097652;28;20475;-53
2021/01/17 07:26:55;;;;;;;3.67;2.50;;;;;;;;;;5097789;28;20182;-53
2021/01/17 07:29:26;;;;;;;3.28;2.20;;;;;;;;;;5086559;28;20186;-53
2021/01/17 07:31:54;;;;;;;2.78;2.58;;;;;;;;;;5079331;28;20224;-53
2021/01/17 07:34:22;;;;;;;2.85;2.58;;;;;;;;;;5077231;28;20221;-53
2021/01/17 07:36:49;;;;;;;3.92;2.50;;;;;;;;;;5083622;28;20557;-53
2021/01/17 07:39:21;;;;;;;6.07;2.35;;;;;;;;;;5081372;28;20416;-53
2021/01/17 07:41:48;;;;;;;2.65;2.45;;;;;;;;;;5077752;28;20261;-54
2021/01/17 07:44:19;;;;;;;5.95;3.67;;;;;;;;;;5088579;28;20186;-53
2021/01/17 07:46:45;;;;;;;10.73;4.95;;;;;;;;;;5077246;28;20254;-53
2021/01/17 07:49:13;;;;;;;6.95;5.38;;;;;;;;;;5100605;28;20610;-53
2021/01/17 07:51:39;;;;;;;7.78;5.72;;;;;;;;;;5092944;28;20206;-53
2021/01/17 07:54:08;;;;;;;9.57;7.32;;;;;;;;;;5095820;28;20181;-53
2021/01/17 07:56:37;;;;;;;10.68;7.75;;;;;;;;;;5077159;28;20189;-53
2021/01/17 07:59:07;;;;;;;12.23;7.63;;;;;;;;;;5095129;28;20249;-53
2021/01/17 08:01:38;;;;;;;9.90;7.93;;;;;;;;;;5097220;28;20227;-53
2021/01/17 08:04:04;;;;;;;10.65;8.05;;;;;;;;;;5093049;28;20182;-54
2021/01/17 08:06:36;;;;;;;10.07;7.35;;;;;;;;;;5092624;28;20186;-54
2021/01/17 08:09:05;;;;;;;12.18;7.35;;;;;;;;;;5077040;28;20659;-54
2021/01/17 08:11:41;;;;;;;8.50;7.15;;;;;;;;;;5087314;28;20448;-54
2021/01/17 08:14:20;;;;;;;8.43;7.38;;;;;;;;;;5084128;28;20432;-64
2021/01/17 08:17:05;;;;;;;11.55;7.60;;;;;;;;;;5094816;28;20230;-54
2021/01/17 08:19:41;;;;;;;8.27;7.07;;;;;;;;;;5096864;28;20181;-52
2021/01/17 08:22:16;;;;;;;9.10;7.13;;;;;;;;;;5095427;28;20180;-52
2021/01/17 08:24:43;;;;;;;11.85;7.18;;;;;;;;;;5086558;28;20173;-53
2021/01/17 08:27:09;;;;;;;11.00;7.20;;;;;;;;;;5096746;28;20545;-53
2021/01/17 08:29:54;;;;;;;9.00;6.72;;;;;;;;;;5095466;28;20201;-53
2021/01/17 08:32:35;;;;;;;11.80;7.30;;;;;;;;;;5083101;28;20229;-52
2021/01/17 08:35:19;;;;;;;8.93;6.85;;;;;;;;;;5074940;28;20175;-52
2021/01/17 08:37:45;;;;;;;7.95;7.18;;;;;;;;;;5076038;28;20174;-53
2021/01/17 08:40:15;;;;;;;9.35;6.82;;;;;;;;;;5079184;28;20182;-49
2021/01/17 08:43:00;;;;;;;10.35;7.07;;;;;;;;;;5088625;28;20240;-53
2021/01/17 08:45:28;;;;;;;15.75;6.85;;;;;;;;;;5095350;28;20181;-53
2021/01/17 08:47:56;;;;;;;7.60;6.40;;;;;;;;;;5095210;28;20249;-57
2021/01/17 08:50:28;;;;;;;7.75;6.18;;;;;;;;;;5094784;28;20729;-56
2021/01/17 08:53:07;;;;;;;7.15;5.97;;;;;;;;;;5091672;28;20204;-58
2021/01/17 08:55:39;;;;;;;9.82;6.28;;;;;;;;;;5092718;28;20181;-59
2021/01/17 08:58:05;;;;;;;9.02;5.90;;;;;;;;;;5095157;28;20170;-59
2021/01/17 09:00:50;;;;;;;7.45;5.90;;;;;;;;;;5095597;28;20177;-57
2021/01/17 09:03:29;;;;;;;5.97;5.38;;;;;;;;;;5094795;28;20182;-60
2021/01/17 09:05:56;;;;;;;6.18;5.20;;;;;;;;;;5094814;28;20176;-50
2021/01/17 09:08:23;;;;;;;6.38;4.97;;;;;;;;;;5089784;28;20185;-61
2021/01/17 09:10:49;;;;;;;6.22;5.63;;;;;;;;;;5082068;28;20637;-52
2021/01/17 09:13:19;;;;;;;5.35;4.82;;;;;;;;;;5075144;28;20186;-52
2021/01/17 09:16:08;;;;;;;5.43;4.85;;;;;;;;;;5074109;28;20550;-54
2021/01/17 09:18:35;;;;;;;7.28;5.18;;;;;;;;;;5078677;28;20174;-61
2021/01/17 09:21:01;;;;;;;5.35;4.85;;;;;;;;;;5115364;28;20177;-57
2021/01/17 09:23:27;;;;;;;6.07;4.90;;;;;;;;;;5089012;28;20178;-56
2021/01/17 09:26:00;;;;;;;5.70;5.05;;;;;;;;;;5094275;28;20580;-64
2021/01/17 09:28:29;;;;;;;5.18;4.68;;;;;;;;;;5093139;28;20215;-54
2021/01/17 09:30:56;;;;;;;5.80;4.55;;;;;;;;;;5080287;28;20182;-58
2021/01/17 09:33:23;;;;;;;5.78;5.18;;;;;;;;;;5088746;28;20327;-54
2021/01/17 09:35:50;;;;;;;6.40;5.15;;;;;;;;;;5093690;28;20276;-61
2021/01/17 09:38:17;;;;;;;8.27;5.53;;;;;;;;;;5088695;28;20179;-52
2021/01/17 09:40:45;;;;;;;9.25;6.00;;;;;;;;;;5087468;28;20251;-51
2021/01/17 09:43:11;;;;;;;11.45;6.93;;;;;;;;;;5092318;28;20706;-54
2021/01/17 09:45:37;;;;;;;8.63;6.00;;;;;;;;;;5094313;28;20181;-59
2021/01/17 09:48:04;;;;;;;10.45;6.50;;;;;;;;;;5094272;28;20197;-57
2021/01/17 09:50:33;;;;;;;12.60;6.75;;;;;;;;;;5089947;28;20214;-49
2021/01/17 09:53:06;;;;;;;13.02;6.10;;;;;;;;;;5083960;28;20202;-51
2021/01/17 09:55:33;;;;;;;10.02;6.55;;;;;;;;;;5086183;28;20581;-52
2021/01/17 09:58:05;;;;;;;9.60;6.72;;;;;;;;;;5082639;28;20553;-53
2021/01/17 10:00:32;;;;;;;8.98;6.50;;;;;;;;;;5093675;28;20239;-51
2021/01/17 10:02:58;;;;;;;10.15;6.40;;;;;;;;;;5094131;28;20189;-52
2021/01/17 10:05:28;;;;;;;10.40;6.75;;;;;;;;;;5094112;28;20189;-51
2021/01/17 10:08:01;;;;;;;9.45;6.35;;;;;;;;;;5076196;28;20194;-53
2021/01/17 10:10:27;;;;;;;9.85;6.10;;;;;;;;;;5083697;28;20502;-52
2021/01/17 10:12:53;;;;;;;9.88;6.25;;;;;;;;;;5094546;28;20194;-53
2021/01/17 10:15:19;;;;;;;11.07;5.90;;;;;;;;;;5093473;28;20174;-52
2021/01/17 10:17:48;;;;;;;10.25;5.68;;;;;;;;;;5093882;28;20184;-54
2021/01/17 10:20:27;;;;;;;8.88;5.60;;;;;;;;;;5094540;28;20243;-50
2021/01/17 10:23:04;;;;;;;11.35;6.53;;;;;;;;;;5094338;28;20188;-50
2021/01/17 10:25:31;;;;;;;13.32;6.40;;;;;;;;;;5092110;28;20264;-50
2021/01/17 10:28:01;;;;;;;10.27;5.80;;;;;;;;;;5093723;28;20238;-53
2021/01/17 10:30:28;;;;;;;13.15;6.55;;;;;;;;;;5089994;28;20611;-51
2021/01/17 10:33:01;;;;;;;13.15;6.65;;;;;;;;;;5078372;28;20545;-53
2021/01/17 10:35:29;;;;;;;9.95;6.65;;;;;;;;;;5077638;28;20455;-51
2021/01/17 10:37:55;;;;;;;13.30;7.10;;;;;;;;;;5078141;28;20202;-52
2021/01/17 10:40:30;;;;;;;14.57;7.63;;;;;;;;;;5089508;28;20273;-60
2021/01/17 10:42:59;;;;;;;49.67;11.02;;;;;;;;;;5078121;28;20178;-53
2021/01/17 10:45:26;;;;;;;52.65;12.55;;;;;;;;;;5077589;28;20228;-57
2021/01/17 10:48:08;;;;;;;52.30;12.15;;;;;;;;;;5077767;28;20619;-56
2021/01/17 10:50:36;;;;;;;42.13;11.23;;;;;;;;;;5092179;28;20182;-56
2021/01/17 10:53:08;;;;;;;36.97;11.00;;;;;;;;;;5092649;28;20497;-51
2021/01/17 10:55:38;;;;;;;36.80;10.68;;;;;;;;;;5098336;28;20454;-54
2021/01/17 10:58:05;;;;;;;31.25;10.05;;;;;;;;;;5077670;28;20558;-57
2021/01/17 11:00:31;;;;;;;34.70;10.85;;;;;;;;;;5088883;28;20653;-55
2021/01/17 11:03:10;;;;;;;34.53;10.73;;;;;;;;;;5091631;28;20195;-53
2021/01/17 11:05:36;;;;;;;25.20;10.15;;;;;;;;;;5097570;28;20186;-59
2021/01/17 11:08:02;;;;;;;25.13;9.93;;;;;;;;;;5097209;28;20659;-61
2021/01/17 11:10:28;;;;;;;27.77;10.55;;;;;;;;;;5086366;28;20285;-66
2021/01/17 11:12:54;;;;;;;25.67;10.23;;;;;;;;;;5077219;28;20264;-64
2021/01/17 11:15:21;;;;;;;32.63;11.32;;;;;;;;;;5086364;28;20173;-57
2021/01/17 11:17:54;;;;;;;33.67;11.40;;;;;;;;;;5089084;28;20197;-56
2021/01/17 11:20:24;;;;;;;33.85;11.30;;;;;;;;;;5101225;28;20189;-53
2021/01/17 11:22:51;;;;;;;38.33;12.07;;;;;;;;;;5086814;28;20189;-53
2021/01/17 11:25:20;;;;;;;39.45;13.07;;;;;;;;;;5090728;28;20181;-53
2021/01/17 11:27:46;;;;;;;32.47;13.00;;;;;;;;;;5082035;28;20269;-53
2021/01/17 11:30:13;;;;;;;42.95;13.93;;;;;;;;;;5080633;28;20220;-53
2021/01/17 11:32:39;;;;;;;37.42;12.70;;;;;;;;;;5077082;28;20209;-53
2021/01/17 11:35:06;;;;;;;34.00;12.18;;;;;;;;;;5076475;28;20178;-53
2021/01/17 11:37:35;;;;;;;27.83;11.13;;;;;;;;;;5076839;28;20186;-53
2021/01/17 11:40:06;;;;;;;32.28;11.48;;;;;;;;;;5085444;28;20557;-53
2021/01/17 11:42:32;;;;;;;29.15;10.52;;;;;;;;;;5089479;28;20198;-53
2021/01/17 11:45:00;;;;;;;31.63;11.02;;;;;;;;;;5083378;28;20242;-53
2021/01/17 11:47:26;;;;;;;23.75;9.80;;;;;;;;;;5096119;28;20214;-53
2021/01/17 11:49:52;;;;;;;26.75;9.82;;;;;;;;;;5094703;28;20178;-51
2021/01/17 11:52:19;;;;;;;24.95;9.95;;;;;;;;;;5087346;28;20292;-54
2021/01/17 11:54:44;;;;;;;23.45;9.15;;;;;;;;;;5076295;28;20206;-56
2021/01/17 11:57:11;;;;;;;16.88;8.38;;;;;;;;;;5080328;28;20209;-54
2021/01/17 11:59:38;;;;;;;21.95;8.68;;;;;;;;;;5089003;28;20192;-50
2021/01/17 12:02:20;;;;;;;18.27;8.38;;;;;;;;;;5083142;28;20209;-49
2021/01/17 12:04:46;;;;;;;22.08;9.13;;;;;;;;;;5096153;28;20170;-48
2021/01/17 12:07:12;;;;;;;18.45;8.00;;;;;;;;;;5089197;28;20178;-57
2021/01/17 12:09:39;;;;;;;17.77;7.68;;;;;;;;;;5093638;28;20223;-52
2021/01/17 12:12:12;;;;;;;18.67;7.03;;;;;;;;;;5085672;28;20229;-58
2021/01/17 12:14:38;;;;;;;14.30;7.40;;;;;;;;;;5077267;28;20197;-50
2021/01/17 12:17:05;;;;;;;19.73;7.68;;;;;;;;;;5076385;28;20429;-57
2021/01/17 12:19:31;;;;;;;17.13;6.97;;;;;;;;;;5085923;28;20186;-56
2021/01/17 12:21:58;;;;;;;18.25;6.68;;;;;;;;;;5081947;28;20193;-55
2021/01/17 12:24:24;;;;;;;14.73;6.85;;;;;;;;;;5086961;28;20192;-57
2021/01/17 12:26:51;;;;;;;12.95;7.13;;;;;;;;;;5083927;28;20229;-62
2021/01/17 12:29:17;;;;;;;10.77;6.43;;;;;;;;;;5084859;28;20601;-60
2021/01/17 12:31:43;;;;;;;14.15;6.43;;;;;;;;;;5075943;28;20209;-63
2021/01/17 12:34:09;;;;;;;14.38;6.45;;;;;;;;;;5075809;28;20236;-55
2021/01/17 12:36:41;;;;;;;12.75;5.47;;;;;;;;;;5091938;28;20185;-51
2021/01/17 12:39:08;;;;;;;13.05;6.28;;;;;;;;;;5074768;28;20185;-52
2021/01/17 12:41:35;;;;;;;12.18;6.35;;;;;;;;;;5080408;28;20190;-55
2021/01/17 12:44:02;;;;;;;9.60;5.93;;;;;;;;;;5075283;28;20189;-51
2021/01/17 12:46:28;;;;;;;11.07;5.60;;;;;;;;;;5078703;28;20527;-54
2021/01/17 12:48:54;;;;;;;14.63;5.72;;;;;;;;;;5091304;28;20560;-49
2021/01/17 12:51:20;;;;;;;18.20;9.90;;;;;;;;;;5081763;28;20221;-56
2021/01/17 12:53:47;;;;;;;15.98;8.63;;;;;;;;;;5093036;28;20622;-50
2021/01/17 12:56:14;;;;;;;14.73;7.43;;;;;;;;;;5092199;28;20182;-50
2021/01/17 12:58:40;;;;;;;14.45;7.43;;;;;;;;;;5095300;28;20308;-50
2021/01/17 13:01:06;;;;;;;11.90;6.25;;;;;;;;;;5087179;28;20174;-50
2021/01/17 13:03:33;;;;;;;16.90;7.32;;;;;;;;;;5084540;28;20189;-50
2021/01/17 13:05:59;;;;;;;12.77;6.70;;;;;;;;;;5095879;28;20260;-50
2021/01/17 13:08:26;;;;;;;11.32;6.15;;;;;;;;;;5081969;28;20183;-52
2021/01/17 13:10:52;;;;;;;11.95;5.82;;;;;;;;;;5085078;28;20496;-51
2021/01/17 13:13:18;;;;;;;10.73;5.72;;;;;;;;;;5080723;28;20581;-50
2021/01/17 13:15:55;;;;;;;9.38;5.80;;;;;;;;;;5074531;28;20179;-50
2021/01/17 13:18:21;;;;;;;9.75;5.70;;;;;;;;;;5090708;28;20182;-50
2021/01/17 13:20:47;;;;;;;16.23;5.20;;;;;;;;;;5084385;28;20205;-51
2021/01/17 13:23:13;;;;;;;12.93;5.57;;;;;;;;;;5074506;28;20186;-50
2021/01/17 13:25:40;;;;;;;7.28;4.82;;;;;;;;;;5074442;28;20213;-50
2021/01/17 13:28:07;;;;;;;12.60;5.32;;;;;;;;;;5093918;28;20282;-50
2021/01/17 13:30:33;;;;;;;14.43;5.43;;;;;;;;;;5074993;28;20518;-50
2021/01/17 13:33:01;;;;;;;8.10;4.85;;;;;;;;;;5079754;28;20252;-50
2021/01/17 13:35:27;;;;;;;15.43;5.65;;;;;;;;;;5073755;28;20182;-50
2021/01/17 13:37:53;;;;;;;8.48;4.85;;;;;;;;;;5079158;28;20210;-50
2021/01/17 13:40:19;;;;;;;11.63;5.07;;;;;;;;;;5074587;28;20214;-50
2021/01/17 13:42:45;;;;;;;10.13;5.03;;;;;;;;;;5076706;28;20190;-50
2021/01/17 13:45:13;;;;;;;8.35;4.95;;;;;;;;;;5084442;28;20253;-50
2021/01/17 13:47:41;;;;;;;7.28;4.50;;;;;;;;;;5082661;28;20485;-50
2021/01/17 13:50:08;;;;;;;9.73;4.90;;;;;;;;;;5094412;28;20209;-50
2021/01/17 13:52:34;;;;;;;11.10;4.97;;;;;;;;;;5081395;28;20197;-50
2021/01/17 13:55:00;;;;;;;8.75;4.20;;;;;;;;;;5093069;28;20498;-50
2021/01/17 13:57:26;;;;;;;7.85;4.38;;;;;;;;;;5083333;28;20204;-50
2021/01/17 13:59:53;;;;;;;7.43;4.35;;;;;;;;;;5079408;28;20175;-50
2021/01/17 14:02:20;;;;;;;8.05;4.65;;;;;;;;;;5080655;28;20259;-50
2021/01/17 14:04:46;;;;;;;8.23;4.63;;;;;;;;;;5086195;28;20222;-50
2021/01/17 14:07:12;;;;;;;8.10;4.00;;;;;;;;;;5086198;28;20451;-50
2021/01/17 14:09:38;;;;;;;6.70;4.05;;;;;;;;;;5087706;28;20204;-52
2021/01/17 14:12:11;;;;;;;6.00;3.85;;;;;;;;;;5090117;28;20194;-52
2021/01/17 14:14:38;;;;;;;6.30;3.88;;;;;;;;;;5086493;28;20229;-51
2021/01/17 14:17:04;;;;;;;8.55;4.05;;;;;;;;;;5081340;28;20184;-51
2021/01/17 14:19:31;;;;;;;6.10;3.97;;;;;;;;;;5091817;28;20175;-52
2021/01/17 14:21:57;;;;;;;5.45;3.90;;;;;;;;;;5075690;28;20190;-51
2021/01/17 14:24:23;;;;;;;5.90;3.95;;;;;;;;;;5093757;28;20177;-51
2021/01/17 14:26:49;;;;;;;5.60;3.90;;;;;;;;;;5085020;28;20269;-51
2021/01/17 14:29:16;;;;;;;4.93;3.63;;;;;;;;;;5081764;28;20586;-51
2021/01/17 14:31:46;;;;;;;6.55;4.22;;;;;;;;;;5092671;28;20227;-51
2021/01/17 14:34:13;;;;;;;5.40;3.83;;;;;;;;;;5085935;28;20189;-51
2021/01/17 14:36:40;;;;;;;5.60;3.72;;;;;;;;;;5093146;28;20235;-51
2021/01/17 14:39:10;;;;;;;4.43;3.50;;;;;;;;;;5094230;28;20174;-51
2021/01/17 14:41:36;;;;;;;7.22;4.00;;;;;;;;;;5090127;28;20204;-51
2021/01/17 14:44:03;;;;;;;5.57;4.05;;;;;;;;;;5085127;28;20570;-51
2021/01/17 14:46:36;;;;;;;4.43;3.75;;;;;;;;;;5083717;28;20189;-51